sensor_id;sensor_type;location;lat;lon;timestamp;P1;durP1;ratioP1;P2;durP2;ratioP2
2257;SDS011;1136;51.574;7.706;2023-06-10T00:00:10;11.70;;;10.80;;
2257;SDS011;1136;51.574;7.706;2023-06-10T00:02:41;11.27;;;10.37;;
2257;SDS011;1136;51.574;7.706;2023-06-10T00:05:09;12.23;;;11.37;;
2257;SDS011;1136;51.574;7.706;2023-06-10T00:07:36;11.17;;;10.30;;
2257;SDS011;1136;51.574;7.706;2023-06-10T00:10:07;11.20;;;10.40;;
2257;SDS011;1136;51.574;7.706;2023-06-10T00:12:36;11.80;;;10.60;;
2257;SDS011;1136;51.574;7.706;2023-06-10T00:15:05;11.30;;;10.40;;
2257;SDS011;1136;51.574;7.706;2023-06-10T00:17:33;11.93;;;10.93;;
2257;SDS011;1136;51.574;7.706;2023-06-10T00:20:00;16.87;;;11.63;;
2257;SDS011;1136;51.574;7.706;2023-06-10T00:22:26;11.63;;;10.73;;
2257;SDS011;1136;51.574;7.706;2023-06-10T00:24:55;11.50;;;10.53;;
2257;SDS011;1136;51.574;7.706;2023-06-10T00:27:25;11.60;;;10.70;;
2257;SDS011;1136;51.574;7.706;2023-06-10T00:29:57;11.50;;;10.70;;
2257;SDS011;1136;51.574;7.706;2023-06-10T00:32:24;13.03;;;11.83;;
2257;SDS011;1136;51.574;7.706;2023-06-10T00:34:50;12.73;;;11.73;;
2257;SDS011;1136;51.574;7.706;2023-06-10T00:37:17;13.23;;;12.03;;
2257;SDS011;1136;51.574;7.706;2023-06-10T00:39:44;11.97;;;11.13;;
2257;SDS011;1136;51.574;7.706;2023-06-10T00:42:10;12.10;;;10.90;;
2257;SDS011;1136;51.574;7.706;2023-06-10T00:44:37;12.10;;;11.10;;
2257;SDS011;1136;51.574;7.706;2023-06-10T00:47:04;11.57;;;10.87;;
2257;SDS011;1136;51.574;7.706;2023-06-10T00:49:32;13.30;;;12.17;;
2257;SDS011;1136;51.574;7.706;2023-06-10T00:51:59;12.80;;;11.60;;
2257;SDS011;1136;51.574;7.706;2023-06-10T00:54:26;13.80;;;12.67;;
2257;SDS011;1136;51.574;7.706;2023-06-10T00:56:53;12.53;;;11.43;;
2257;SDS011;1136;51.574;7.706;2023-06-10T00:59:19;12.20;;;11.40;;
2257;SDS011;1136;51.574;7.706;2023-06-10T01:01:46;13.53;;;12.53;;
2257;SDS011;1136;51.574;7.706;2023-06-10T01:04:13;13.40;;;12.30;;
2257;SDS011;1136;51.574;7.706;2023-06-10T01:09:33;13.07;;;12.10;;
2257;SDS011;1136;51.574;7.706;2023-06-10T01:12:21;14.10;;;12.90;;
2257;SDS011;1136;51.574;7.706;2023-06-10T01:14:55;14.47;;;13.33;;
2257;SDS011;1136;51.574;7.706;2023-06-10T01:17:22;13.97;;;12.87;;
2257;SDS011;1136;51.574;7.706;2023-06-10T01:19:55;13.60;;;12.50;;
2257;SDS011;1136;51.574;7.706;2023-06-10T01:22:26;14.40;;;13.10;;
2257;SDS011;1136;51.574;7.706;2023-06-10T01:24:58;15.37;;;14.17;;
2257;SDS011;1136;51.574;7.706;2023-06-10T01:27:26;15.83;;;14.20;;
2257;SDS011;1136;51.574;7.706;2023-06-10T01:29:59;13.90;;;12.07;;
2257;SDS011;1136;51.574;7.706;2023-06-10T01:32:32;13.50;;;12.50;;
2257;SDS011;1136;51.574;7.706;2023-06-10T01:35:02;14.37;;;13.27;;
2257;SDS011;1136;51.574;7.706;2023-06-10T01:37:29;14.97;;;13.70;;
2257;SDS011;1136;51.574;7.706;2023-06-10T01:39:57;13.60;;;12.40;;
2257;SDS011;1136;51.574;7.706;2023-06-10T01:42:26;15.33;;;14.13;;
2257;SDS011;1136;51.574;7.706;2023-06-10T01:44:53;19.20;;;15.10;;
2257;SDS011;1136;51.574;7.706;2023-06-10T01:47:20;15.50;;;14.30;;
2257;SDS011;1136;51.574;7.706;2023-06-10T01:49:47;16.93;;;15.50;;
2257;SDS011;1136;51.574;7.706;2023-06-10T01:52:13;15.33;;;14.10;;
2257;SDS011;1136;51.574;7.706;2023-06-10T01:54:40;15.27;;;14.03;;
2257;SDS011;1136;51.574;7.706;2023-06-10T01:57:07;14.60;;;13.40;;
2257;SDS011;1136;51.574;7.706;2023-06-10T01:59:33;15.37;;;14.17;;
2257;SDS011;1136;51.574;7.706;2023-06-10T02:02:00;15.50;;;14.13;;
2257;SDS011;1136;51.574;7.706;2023-06-10T02:04:27;16.67;;;15.23;;
2257;SDS011;1136;51.574;7.706;2023-06-10T02:06:53;15.23;;;13.93;;
2257;SDS011;1136;51.574;7.706;2023-06-10T02:09:22;17.10;;;15.67;;
2257;SDS011;1136;51.574;7.706;2023-06-10T02:11:49;16.00;;;14.73;;
2257;SDS011;1136;51.574;7.706;2023-06-10T02:14:15;16.80;;;15.20;;
2257;SDS011;1136;51.574;7.706;2023-06-10T02:16:42;17.43;;;16.00;;
2257;SDS011;1136;51.574;7.706;2023-06-10T02:19:12;17.23;;;15.70;;
2257;SDS011;1136;51.574;7.706;2023-06-10T02:21:39;16.30;;;14.87;;
2257;SDS011;1136;51.574;7.706;2023-06-10T02:24:06;18.80;;;16.80;;
2257;SDS011;1136;51.574;7.706;2023-06-10T02:26:33;18.77;;;16.97;;
2257;SDS011;1136;51.574;7.706;2023-06-10T02:28:59;16.80;;;15.30;;
2257;SDS011;1136;51.574;7.706;2023-06-10T02:31:26;16.33;;;15.00;;
2257;SDS011;1136;51.574;7.706;2023-06-10T02:33:52;17.60;;;16.20;;
2257;SDS011;1136;51.574;7.706;2023-06-10T02:36:19;17.07;;;15.70;;
2257;SDS011;1136;51.574;7.706;2023-06-10T02:38:48;18.03;;;16.53;;
2257;SDS011;1136;51.574;7.706;2023-06-10T02:41:14;17.47;;;15.87;;
2257;SDS011;1136;51.574;7.706;2023-06-10T02:43:41;18.83;;;17.20;;
2257;SDS011;1136;51.574;7.706;2023-06-10T02:46:07;18.80;;;17.30;;
2257;SDS011;1136;51.574;7.706;2023-06-10T02:48:40;18.10;;;16.37;;
2257;SDS011;1136;51.574;7.706;2023-06-10T02:51:08;18.93;;;17.40;;
2257;SDS011;1136;51.574;7.706;2023-06-10T02:53:35;17.93;;;16.30;;
2257;SDS011;1136;51.574;7.706;2023-06-10T02:56:02;18.03;;;16.73;;
2257;SDS011;1136;51.574;7.706;2023-06-10T02:58:28;17.73;;;16.40;;
2257;SDS011;1136;51.574;7.706;2023-06-10T03:00:55;17.67;;;16.27;;
2257;SDS011;1136;51.574;7.706;2023-06-10T03:03:22;18.30;;;16.70;;
2257;SDS011;1136;51.574;7.706;2023-06-10T03:05:49;17.60;;;16.20;;
2257;SDS011;1136;51.574;7.706;2023-06-10T03:08:15;18.03;;;16.43;;
2257;SDS011;1136;51.574;7.706;2023-06-10T03:10:42;18.30;;;16.80;;
2257;SDS011;1136;51.574;7.706;2023-06-10T03:13:09;26.80;;;16.60;;
2257;SDS011;1136;51.574;7.706;2023-06-10T03:15:36;17.10;;;15.70;;
2257;SDS011;1136;51.574;7.706;2023-06-10T03:18:03;18.07;;;16.23;;
2257;SDS011;1136;51.574;7.706;2023-06-10T03:20:31;17.47;;;16.07;;
2257;SDS011;1136;51.574;7.706;2023-06-10T03:22:57;17.23;;;15.93;;
2257;SDS011;1136;51.574;7.706;2023-06-10T03:25:24;17.40;;;15.87;;
2257;SDS011;1136;51.574;7.706;2023-06-10T03:27:52;19.53;;;16.70;;
2257;SDS011;1136;51.574;7.706;2023-06-10T03:30:18;18.33;;;16.77;;
2257;SDS011;1136;51.574;7.706;2023-06-10T03:32:45;18.70;;;16.90;;
2257;SDS011;1136;51.574;7.706;2023-06-10T03:35:12;18.97;;;17.37;;
2257;SDS011;1136;51.574;7.706;2023-06-10T03:37:39;17.03;;;15.60;;
2257;SDS011;1136;51.574;7.706;2023-06-10T03:40:06;17.57;;;16.13;;
2257;SDS011;1136;51.574;7.706;2023-06-10T03:42:34;17.87;;;16.37;;
2257;SDS011;1136;51.574;7.706;2023-06-10T03:45:01;16.33;;;14.93;;
2257;SDS011;1136;51.574;7.706;2023-06-10T03:47:33;18.80;;;17.10;;
2257;SDS011;1136;51.574;7.706;2023-06-10T03:50:01;18.00;;;16.10;;
2257;SDS011;1136;51.574;7.706;2023-06-10T03:52:30;17.30;;;15.90;;
2257;SDS011;1136;51.574;7.706;2023-06-10T03:54:56;17.00;;;15.60;;
2257;SDS011;1136;51.574;7.706;2023-06-10T03:57:23;16.43;;;15.03;;
2257;SDS011;1136;51.574;7.706;2023-06-10T03:59:50;17.37;;;15.70;;
2257;SDS011;1136;51.574;7.706;2023-06-10T04:02:16;16.27;;;14.87;;
2257;SDS011;1136;51.574;7.706;2023-06-10T04:04:44;16.83;;;15.43;;
2257;SDS011;1136;51.574;7.706;2023-06-10T04:07:11;16.53;;;15.17;;
2257;SDS011;1136;51.574;7.706;2023-06-10T04:09:38;16.40;;;15.10;;
2257;SDS011;1136;51.574;7.706;2023-06-10T04:12:05;15.23;;;13.90;;
2257;SDS011;1136;51.574;7.706;2023-06-10T04:14:36;15.83;;;14.50;;
2257;SDS011;1136;51.574;7.706;2023-06-10T04:17:04;15.60;;;14.13;;
2257;SDS011;1136;51.574;7.706;2023-06-10T04:19:34;16.40;;;14.87;;
2257;SDS011;1136;51.574;7.706;2023-06-10T04:22:01;15.47;;;13.93;;
2257;SDS011;1136;51.574;7.706;2023-06-10T04:24:29;17.23;;;15.70;;
2257;SDS011;1136;51.574;7.706;2023-06-10T04:26:56;16.27;;;14.87;;
2257;SDS011;1136;51.574;7.706;2023-06-10T04:29:23;15.00;;;13.60;;
2257;SDS011;1136;51.574;7.706;2023-06-10T04:31:50;14.93;;;13.53;;
2257;SDS011;1136;51.574;7.706;2023-06-10T04:34:16;15.13;;;13.80;;
2257;SDS011;1136;51.574;7.706;2023-06-10T04:36:43;15.40;;;14.00;;
2257;SDS011;1136;51.574;7.706;2023-06-10T04:39:10;15.70;;;14.03;;
2257;SDS011;1136;51.574;7.706;2023-06-10T04:41:36;14.67;;;13.33;;
2257;SDS011;1136;51.574;7.706;2023-06-10T04:44:03;14.37;;;13.03;;
2257;SDS011;1136;51.574;7.706;2023-06-10T04:46:29;14.27;;;12.93;;
2257;SDS011;1136;51.574;7.706;2023-06-10T04:48:58;13.50;;;12.17;;
2257;SDS011;1136;51.574;7.706;2023-06-10T04:51:24;14.10;;;12.80;;
2257;SDS011;1136;51.574;7.706;2023-06-10T04:53:52;13.30;;;12.10;;
2257;SDS011;1136;51.574;7.706;2023-06-10T04:56:19;13.60;;;12.40;;
2257;SDS011;1136;51.574;7.706;2023-06-10T04:58:46;15.40;;;12.57;;
2257;SDS011;1136;51.574;7.706;2023-06-10T05:01:13;13.43;;;12.33;;
2257;SDS011;1136;51.574;7.706;2023-06-10T05:03:40;12.30;;;11.20;;
2257;SDS011;1136;51.574;7.706;2023-06-10T05:06:06;14.97;;;12.10;;
2257;SDS011;1136;51.574;7.706;2023-06-10T05:08:33;12.87;;;11.60;;
2257;SDS011;1136;51.574;7.706;2023-06-10T05:11:00;13.77;;;12.43;;
2257;SDS011;1136;51.574;7.706;2023-06-10T05:13:26;13.80;;;12.60;;
2257;SDS011;1136;51.574;7.706;2023-06-10T05:15:53;13.90;;;12.40;;
2257;SDS011;1136;51.574;7.706;2023-06-10T05:18:20;13.70;;;11.97;;
2257;SDS011;1136;51.574;7.706;2023-06-10T05:20:46;11.93;;;10.90;;
2257;SDS011;1136;51.574;7.706;2023-06-10T05:23:13;12.00;;;11.10;;
2257;SDS011;1136;51.574;7.706;2023-06-10T05:25:39;12.57;;;11.47;;
2257;SDS011;1136;51.574;7.706;2023-06-10T05:28:06;12.30;;;11.20;;
2257;SDS011;1136;51.574;7.706;2023-06-10T05:30:39;11.00;;;10.00;;
2257;SDS011;1136;51.574;7.706;2023-06-10T05:33:06;12.13;;;11.03;;
2257;SDS011;1136;51.574;7.706;2023-06-10T05:35:32;12.17;;;11.00;;
2257;SDS011;1136;51.574;7.706;2023-06-10T05:37:59;11.13;;;10.03;;
2257;SDS011;1136;51.574;7.706;2023-06-10T05:40:29;11.70;;;10.63;;
2257;SDS011;1136;51.574;7.706;2023-06-10T05:42:55;11.93;;;10.83;;
2257;SDS011;1136;51.574;7.706;2023-06-10T05:45:22;12.33;;;10.70;;
2257;SDS011;1136;51.574;7.706;2023-06-10T05:47:49;11.03;;;10.00;;
2257;SDS011;1136;51.574;7.706;2023-06-10T05:50:16;13.73;;;11.57;;
2257;SDS011;1136;51.574;7.706;2023-06-10T05:52:42;11.20;;;10.17;;
2257;SDS011;1136;51.574;7.706;2023-06-10T05:55:09;9.93;;;9.03;;
2257;SDS011;1136;51.574;7.706;2023-06-10T05:57:36;10.93;;;9.83;;
2257;SDS011;1136;51.574;7.706;2023-06-10T06:00:03;10.13;;;8.83;;
2257;SDS011;1136;51.574;7.706;2023-06-10T06:02:30;9.60;;;8.70;;
2257;SDS011;1136;51.574;7.706;2023-06-10T06:04:57;9.50;;;8.57;;
2257;SDS011;1136;51.574;7.706;2023-06-10T06:07:24;9.30;;;8.50;;
2257;SDS011;1136;51.574;7.706;2023-06-10T06:09:50;15.23;;;9.60;;
2257;SDS011;1136;51.574;7.706;2023-06-10T06:12:17;11.97;;;8.40;;
2257;SDS011;1136;51.574;7.706;2023-06-10T06:14:44;9.50;;;8.67;;
2257;SDS011;1136;51.574;7.706;2023-06-10T06:17:11;8.53;;;7.63;;
2257;SDS011;1136;51.574;7.706;2023-06-10T06:19:37;8.23;;;7.43;;
2257;SDS011;1136;51.574;7.706;2023-06-10T06:22:04;7.23;;;6.63;;
2257;SDS011;1136;51.574;7.706;2023-06-10T06:24:31;7.97;;;7.17;;
2257;SDS011;1136;51.574;7.706;2023-06-10T06:26:57;8.10;;;7.40;;
2257;SDS011;1136;51.574;7.706;2023-06-10T06:29:24;7.30;;;6.70;;
2257;SDS011;1136;51.574;7.706;2023-06-10T06:31:51;7.43;;;6.80;;
2257;SDS011;1136;51.574;7.706;2023-06-10T06:34:18;10.13;;;6.97;;
2257;SDS011;1136;51.574;7.706;2023-06-10T06:36:44;10.27;;;6.67;;
2257;SDS011;1136;51.574;7.706;2023-06-10T06:39:11;6.63;;;6.00;;
2257;SDS011;1136;51.574;7.706;2023-06-10T06:41:37;8.60;;;7.07;;
2257;SDS011;1136;51.574;7.706;2023-06-10T06:44:04;7.73;;;7.03;;
2257;SDS011;1136;51.574;7.706;2023-06-10T06:46:31;8.53;;;7.13;;
2257;SDS011;1136;51.574;7.706;2023-06-10T06:48:57;6.80;;;6.20;;
2257;SDS011;1136;51.574;7.706;2023-06-10T06:51:24;8.03;;;6.50;;
2257;SDS011;1136;51.574;7.706;2023-06-10T06:53:51;7.67;;;6.97;;
2257;SDS011;1136;51.574;7.706;2023-06-10T06:56:17;8.00;;;6.47;;
2257;SDS011;1136;51.574;7.706;2023-06-10T06:58:44;8.60;;;7.13;;
2257;SDS011;1136;51.574;7.706;2023-06-10T07:01:10;8.10;;;7.20;;
2257;SDS011;1136;51.574;7.706;2023-06-10T07:03:37;6.60;;;6.10;;
2257;SDS011;1136;51.574;7.706;2023-06-10T07:06:04;7.20;;;6.13;;
2257;SDS011;1136;51.574;7.706;2023-06-10T07:08:31;7.73;;;6.20;;
2257;SDS011;1136;51.574;7.706;2023-06-10T07:10:57;7.90;;;6.23;;
2257;SDS011;1136;51.574;7.706;2023-06-10T07:13:24;6.80;;;6.30;;
2257;SDS011;1136;51.574;7.706;2023-06-10T07:15:51;6.97;;;5.90;;
2257;SDS011;1136;51.574;7.706;2023-06-10T07:18:17;7.07;;;6.47;;
2257;SDS011;1136;51.574;7.706;2023-06-10T07:20:44;6.20;;;5.60;;
2257;SDS011;1136;51.574;7.706;2023-06-10T07:23:10;8.70;;;6.50;;
2257;SDS011;1136;51.574;7.706;2023-06-10T07:25:37;7.77;;;6.03;;
2257;SDS011;1136;51.574;7.706;2023-06-10T07:28:04;7.13;;;6.10;;
2257;SDS011;1136;51.574;7.706;2023-06-10T07:30:31;9.03;;;6.17;;
2257;SDS011;1136;51.574;7.706;2023-06-10T07:32:57;7.50;;;6.03;;
2257;SDS011;1136;51.574;7.706;2023-06-10T07:35:24;13.70;;;6.50;;
2257;SDS011;1136;51.574;7.706;2023-06-10T07:37:51;6.50;;;6.00;;
2257;SDS011;1136;51.574;7.706;2023-06-10T07:40:17;6.57;;;5.80;;
2257;SDS011;1136;51.574;7.706;2023-06-10T07:42:44;6.70;;;6.13;;
2257;SDS011;1136;51.574;7.706;2023-06-10T07:45:11;6.40;;;5.60;;
2257;SDS011;1136;51.574;7.706;2023-06-10T07:47:38;6.20;;;5.80;;
2257;SDS011;1136;51.574;7.706;2023-06-10T07:50:04;6.60;;;5.90;;
2257;SDS011;1136;51.574;7.706;2023-06-10T07:52:31;6.67;;;6.07;;
2257;SDS011;1136;51.574;7.706;2023-06-10T07:54:58;7.10;;;6.00;;
2257;SDS011;1136;51.574;7.706;2023-06-10T07:57:24;7.07;;;6.37;;
2257;SDS011;1136;51.574;7.706;2023-06-10T07:59:51;7.83;;;5.67;;
2257;SDS011;1136;51.574;7.706;2023-06-10T08:02:18;6.93;;;6.33;;
2257;SDS011;1136;51.574;7.706;2023-06-10T08:04:44;7.67;;;5.77;;
2257;SDS011;1136;51.574;7.706;2023-06-10T08:07:11;10.00;;;7.00;;
2257;SDS011;1136;51.574;7.706;2023-06-10T08:09:38;10.80;;;6.30;;
2257;SDS011;1136;51.574;7.706;2023-06-10T08:12:05;5.00;;;4.60;;
2257;SDS011;1136;51.574;7.706;2023-06-10T08:14:33;10.40;;;5.70;;
2257;SDS011;1136;51.574;7.706;2023-06-10T08:17:00;8.20;;;6.10;;
2257;SDS011;1136;51.574;7.706;2023-06-10T08:19:27;6.50;;;5.90;;
2257;SDS011;1136;51.574;7.706;2023-06-10T08:21:53;5.73;;;5.20;;
2257;SDS011;1136;51.574;7.706;2023-06-10T08:24:20;12.40;;;6.43;;
2257;SDS011;1136;51.574;7.706;2023-06-10T08:26:46;5.93;;;5.43;;
2257;SDS011;1136;51.574;7.706;2023-06-10T08:29:13;6.60;;;6.00;;
2257;SDS011;1136;51.574;7.706;2023-06-10T08:31:43;11.73;;;5.90;;
2257;SDS011;1136;51.574;7.706;2023-06-10T08:34:11;6.37;;;5.87;;
2257;SDS011;1136;51.574;7.706;2023-06-10T08:36:38;5.77;;;5.20;;
2257;SDS011;1136;51.574;7.706;2023-06-10T08:39:05;6.40;;;5.83;;
2257;SDS011;1136;51.574;7.706;2023-06-10T08:41:34;6.43;;;5.93;;
2257;SDS011;1136;51.574;7.706;2023-06-10T08:44:04;6.33;;;5.70;;
2257;SDS011;1136;51.574;7.706;2023-06-10T08:46:35;5.60;;;5.30;;
2257;SDS011;1136;51.574;7.706;2023-06-10T08:49:03;6.90;;;6.30;;
2257;SDS011;1136;51.574;7.706;2023-06-10T08:51:34;5.43;;;4.90;;
2257;SDS011;1136;51.574;7.706;2023-06-10T08:54:08;6.03;;;5.47;;
2257;SDS011;1136;51.574;7.706;2023-06-10T08:56:38;6.27;;;5.60;;
2257;SDS011;1136;51.574;7.706;2023-06-10T08:59:05;6.40;;;5.07;;
2257;SDS011;1136;51.574;7.706;2023-06-10T09:01:32;6.97;;;6.20;;
2257;SDS011;1136;51.574;7.706;2023-06-10T09:03:59;6.87;;;5.90;;
2257;SDS011;1136;51.574;7.706;2023-06-10T09:06:26;5.77;;;5.13;;
2257;SDS011;1136;51.574;7.706;2023-06-10T09:08:53;7.83;;;5.50;;
2257;SDS011;1136;51.574;7.706;2023-06-10T09:11:19;6.33;;;5.57;;
2257;SDS011;1136;51.574;7.706;2023-06-10T09:13:46;6.67;;;6.17;;
2257;SDS011;1136;51.574;7.706;2023-06-10T09:16:13;6.00;;;5.40;;
2257;SDS011;1136;51.574;7.706;2023-06-10T09:18:40;7.37;;;6.03;;
2257;SDS011;1136;51.574;7.706;2023-06-10T09:21:06;5.50;;;5.10;;
2257;SDS011;1136;51.574;7.706;2023-06-10T09:23:33;6.50;;;6.00;;
2257;SDS011;1136;51.574;7.706;2023-06-10T09:26:01;6.77;;;6.27;;
2257;SDS011;1136;51.574;7.706;2023-06-10T09:28:30;6.53;;;5.93;;
2257;SDS011;1136;51.574;7.706;2023-06-10T09:31:03;7.20;;;6.60;;
2257;SDS011;1136;51.574;7.706;2023-06-10T09:33:31;7.10;;;6.50;;
2257;SDS011;1136;51.574;7.706;2023-06-10T09:35:59;7.37;;;6.30;;
2257;SDS011;1136;51.574;7.706;2023-06-10T09:38:33;6.90;;;6.50;;
2257;SDS011;1136;51.574;7.706;2023-06-10T09:41:00;6.53;;;6.00;;
2257;SDS011;1136;51.574;7.706;2023-06-10T09:43:38;6.00;;;5.50;;
2257;SDS011;1136;51.574;7.706;2023-06-10T09:46:05;6.67;;;6.17;;
2257;SDS011;1136;51.574;7.706;2023-06-10T09:48:38;6.53;;;6.03;;
2257;SDS011;1136;51.574;7.706;2023-06-10T09:51:11;6.60;;;6.10;;
2257;SDS011;1136;51.574;7.706;2023-06-10T09:53:38;6.97;;;6.50;;
2257;SDS011;1136;51.574;7.706;2023-06-10T09:56:05;7.07;;;6.50;;
2257;SDS011;1136;51.574;7.706;2023-06-10T09:58:37;6.27;;;5.87;;
2257;SDS011;1136;51.574;7.706;2023-06-10T10:01:05;7.30;;;6.60;;
2257;SDS011;1136;51.574;7.706;2023-06-10T10:03:48;12.83;;;6.53;;
2257;SDS011;1136;51.574;7.706;2023-06-10T10:06:17;7.33;;;6.83;;
2257;SDS011;1136;51.574;7.706;2023-06-10T10:08:44;7.77;;;7.00;;
2257;SDS011;1136;51.574;7.706;2023-06-10T10:11:12;7.07;;;6.47;;
2257;SDS011;1136;51.574;7.706;2023-06-10T10:13:45;7.03;;;6.63;;
2257;SDS011;1136;51.574;7.706;2023-06-10T10:16:14;7.37;;;6.87;;
2257;SDS011;1136;51.574;7.706;2023-06-10T10:18:45;6.60;;;6.17;;
2257;SDS011;1136;51.574;7.706;2023-06-10T10:21:14;7.40;;;6.70;;
2257;SDS011;1136;51.574;7.706;2023-06-10T10:26:28;7.07;;;6.57;;
2257;SDS011;1136;51.574;7.706;2023-06-10T10:29:20;7.27;;;6.60;;
2257;SDS011;1136;51.574;7.706;2023-06-10T10:31:59;7.23;;;6.67;;
2257;SDS011;1136;51.574;7.706;2023-06-10T10:34:32;6.60;;;6.20;;
2257;SDS011;1136;51.574;7.706;2023-06-10T10:37:03;7.27;;;6.87;;
2257;SDS011;1136;51.574;7.706;2023-06-10T10:39:30;7.47;;;6.73;;
2257;SDS011;1136;51.574;7.706;2023-06-10T10:41:59;7.90;;;7.30;;
2257;SDS011;1136;51.574;7.706;2023-06-10T10:44:30;7.30;;;6.70;;
2257;SDS011;1136;51.574;7.706;2023-06-10T10:46:57;7.50;;;6.80;;
2257;SDS011;1136;51.574;7.706;2023-06-10T10:49:25;7.23;;;6.70;;
2257;SDS011;1136;51.574;7.706;2023-06-10T10:51:59;8.30;;;7.23;;
2257;SDS011;1136;51.574;7.706;2023-06-10T11:05:11;7.67;;;6.10;;
2257;SDS011;1136;51.574;7.706;2023-06-10T11:07:40;7.00;;;6.33;;
2257;SDS011;1136;51.574;7.706;2023-06-10T11:10:08;7.30;;;6.80;;
2257;SDS011;1136;51.574;7.706;2023-06-10T11:15:12;7.37;;;6.73;;
2257;SDS011;1136;51.574;7.706;2023-06-10T11:31:27;7.40;;;6.80;;
2257;SDS011;1136;51.574;7.706;2023-06-10T11:36:26;7.00;;;6.60;;
2257;SDS011;1136;51.574;7.706;2023-06-10T11:39:03;7.93;;;7.30;;
2257;SDS011;1136;51.574;7.706;2023-06-10T11:41:31;7.50;;;7.00;;
2257;SDS011;1136;51.574;7.706;2023-06-10T11:44:12;7.30;;;6.90;;
2257;SDS011;1136;51.574;7.706;2023-06-10T11:46:44;7.20;;;6.50;;
2257;SDS011;1136;51.574;7.706;2023-06-10T11:49:11;7.40;;;6.80;;
2257;SDS011;1136;51.574;7.706;2023-06-10T11:51:38;7.03;;;6.60;;
2257;SDS011;1136;51.574;7.706;2023-06-10T11:54:09;7.70;;;7.20;;
2257;SDS011;1136;51.574;7.706;2023-06-10T11:56:36;8.00;;;7.43;;
2257;SDS011;1136;51.574;7.706;2023-06-10T11:59:04;8.20;;;7.13;;
2257;SDS011;1136;51.574;7.706;2023-06-10T12:01:34;6.90;;;6.60;;
2257;SDS011;1136;51.574;7.706;2023-06-10T12:04:07;7.93;;;7.37;;
2257;SDS011;1136;51.574;7.706;2023-06-10T12:09:35;7.67;;;7.17;;
2257;SDS011;1136;51.574;7.706;2023-06-10T12:12:02;10.00;;;6.70;;
2257;SDS011;1136;51.574;7.706;2023-06-10T12:17:17;7.70;;;7.20;;
2257;SDS011;1136;51.574;7.706;2023-06-10T12:19:44;8.00;;;7.47;;
2257;SDS011;1136;51.574;7.706;2023-06-10T12:22:11;8.10;;;7.43;;
2257;SDS011;1136;51.574;7.706;2023-06-10T12:24:44;8.17;;;7.47;;
2257;SDS011;1136;51.574;7.706;2023-06-10T12:27:33;7.60;;;6.77;;
2257;SDS011;1136;51.574;7.706;2023-06-10T12:30:01;9.33;;;7.27;;
2257;SDS011;1136;51.574;7.706;2023-06-10T12:32:40;8.63;;;8.03;;
2257;SDS011;1136;51.574;7.706;2023-06-10T12:35:08;7.77;;;7.27;;
2257;SDS011;1136;51.574;7.706;2023-06-10T12:37:37;7.93;;;7.23;;
2257;SDS011;1136;51.574;7.706;2023-06-10T12:40:08;8.13;;;7.43;;
2257;SDS011;1136;51.574;7.706;2023-06-10T12:42:36;8.47;;;7.87;;
2257;SDS011;1136;51.574;7.706;2023-06-10T12:45:03;8.30;;;7.47;;
2257;SDS011;1136;51.574;7.706;2023-06-10T12:47:33;9.33;;;7.47;;
2257;SDS011;1136;51.574;7.706;2023-06-10T12:50:02;7.90;;;7.20;;
2257;SDS011;1136;51.574;7.706;2023-06-10T12:52:29;9.10;;;7.20;;
2257;SDS011;1136;51.574;7.706;2023-06-10T12:54:56;8.20;;;7.60;;
2257;SDS011;1136;51.574;7.706;2023-06-10T12:57:23;8.33;;;7.73;;
2257;SDS011;1136;51.574;7.706;2023-06-10T12:59:50;8.00;;;7.30;;
2257;SDS011;1136;51.574;7.706;2023-06-10T13:02:19;8.37;;;7.30;;
2257;SDS011;1136;51.574;7.706;2023-06-10T13:04:46;8.40;;;7.63;;
2257;SDS011;1136;51.574;7.706;2023-06-10T13:07:14;8.23;;;7.50;;
2257;SDS011;1136;51.574;7.706;2023-06-10T13:09:41;7.97;;;7.37;;
2257;SDS011;1136;51.574;7.706;2023-06-10T13:12:08;7.93;;;7.17;;
2257;SDS011;1136;51.574;7.706;2023-06-10T13:14:41;8.23;;;7.47;;
2257;SDS011;1136;51.574;7.706;2023-06-10T13:17:08;8.30;;;7.43;;
2257;SDS011;1136;51.574;7.706;2023-06-10T13:19:35;8.00;;;7.40;;
2257;SDS011;1136;51.574;7.706;2023-06-10T13:22:01;7.50;;;7.00;;
2257;SDS011;1136;51.574;7.706;2023-06-10T13:24:28;7.60;;;7.10;;
2257;SDS011;1136;51.574;7.706;2023-06-10T13:26:55;7.23;;;6.83;;
2257;SDS011;1136;51.574;7.706;2023-06-10T13:29:22;7.63;;;7.00;;
2257;SDS011;1136;51.574;7.706;2023-06-10T13:31:49;7.60;;;6.80;;
2257;SDS011;1136;51.574;7.706;2023-06-10T13:34:16;7.27;;;6.70;;
2257;SDS011;1136;51.574;7.706;2023-06-10T13:36:42;8.97;;;8.00;;
2257;SDS011;1136;51.574;7.706;2023-06-10T13:39:09;8.27;;;7.57;;
2257;SDS011;1136;51.574;7.706;2023-06-10T13:41:36;7.97;;;7.20;;
2257;SDS011;1136;51.574;7.706;2023-06-10T13:44:02;7.80;;;7.20;;
2257;SDS011;1136;51.574;7.706;2023-06-10T13:46:29;6.80;;;6.40;;
2257;SDS011;1136;51.574;7.706;2023-06-10T13:48:56;7.43;;;6.73;;
2257;SDS011;1136;51.574;7.706;2023-06-10T13:51:23;7.67;;;7.00;;
2257;SDS011;1136;51.574;7.706;2023-06-10T13:53:49;7.37;;;6.77;;
2257;SDS011;1136;51.574;7.706;2023-06-10T13:56:18;7.33;;;6.63;;
2257;SDS011;1136;51.574;7.706;2023-06-10T13:58:45;7.00;;;6.50;;
2257;SDS011;1136;51.574;7.706;2023-06-10T14:01:11;8.83;;;7.17;;
2257;SDS011;1136;51.574;7.706;2023-06-10T14:03:38;7.03;;;6.63;;
2257;SDS011;1136;51.574;7.706;2023-06-10T14:06:05;7.40;;;6.67;;
2257;SDS011;1136;51.574;7.706;2023-06-10T14:08:32;7.10;;;6.50;;
2257;SDS011;1136;51.574;7.706;2023-06-10T14:10:58;7.90;;;7.20;;
2257;SDS011;1136;51.574;7.706;2023-06-10T14:13:25;8.70;;;7.83;;
2257;SDS011;1136;51.574;7.706;2023-06-10T14:15:52;8.23;;;7.43;;
2257;SDS011;1136;51.574;7.706;2023-06-10T14:18:18;9.20;;;8.03;;
2257;SDS011;1136;51.574;7.706;2023-06-10T14:20:45;8.20;;;7.40;;
2257;SDS011;1136;51.574;7.706;2023-06-10T14:23:12;10.00;;;8.20;;
2257;SDS011;1136;51.574;7.706;2023-06-10T14:25:38;7.70;;;7.10;;
2257;SDS011;1136;51.574;7.706;2023-06-10T14:28:05;8.00;;;7.30;;
2257;SDS011;1136;51.574;7.706;2023-06-10T14:30:32;9.87;;;6.53;;
2257;SDS011;1136;51.574;7.706;2023-06-10T14:32:58;7.30;;;6.70;;
2257;SDS011;1136;51.574;7.706;2023-06-10T14:35:25;7.87;;;6.97;;
2257;SDS011;1136;51.574;7.706;2023-06-10T14:37:51;7.20;;;6.60;;
2257;SDS011;1136;51.574;7.706;2023-06-10T14:40:18;7.30;;;6.80;;
2257;SDS011;1136;51.574;7.706;2023-06-10T14:42:44;6.70;;;6.20;;
2257;SDS011;1136;51.574;7.706;2023-06-10T14:45:11;6.93;;;6.53;;
2257;SDS011;1136;51.574;7.706;2023-06-10T14:47:38;9.03;;;7.60;;
2257;SDS011;1136;51.574;7.706;2023-06-10T14:50:04;7.27;;;6.67;;
2257;SDS011;1136;51.574;7.706;2023-06-10T14:52:31;7.40;;;6.97;;
2257;SDS011;1136;51.574;7.706;2023-06-10T14:54:58;7.23;;;6.70;;
2257;SDS011;1136;51.574;7.706;2023-06-10T14:57:24;7.70;;;7.20;;
2257;SDS011;1136;51.574;7.706;2023-06-10T14:59:51;7.17;;;6.57;;
2257;SDS011;1136;51.574;7.706;2023-06-10T15:02:18;8.60;;;6.67;;
2257;SDS011;1136;51.574;7.706;2023-06-10T15:04:44;7.50;;;6.90;;
2257;SDS011;1136;51.574;7.706;2023-06-10T15:07:11;7.90;;;7.10;;
2257;SDS011;1136;51.574;7.706;2023-06-10T15:09:40;7.00;;;6.50;;
2257;SDS011;1136;51.574;7.706;2023-06-10T15:12:07;7.50;;;6.87;;
2257;SDS011;1136;51.574;7.706;2023-06-10T15:14:34;7.13;;;6.43;;
2257;SDS011;1136;51.574;7.706;2023-06-10T15:17:00;8.20;;;7.40;;
2257;SDS011;1136;51.574;7.706;2023-06-10T15:19:28;7.30;;;6.80;;
2257;SDS011;1136;51.574;7.706;2023-06-10T15:21:54;7.23;;;6.63;;
2257;SDS011;1136;51.574;7.706;2023-06-10T15:24:21;8.83;;;8.00;;
2257;SDS011;1136;51.574;7.706;2023-06-10T15:26:48;7.13;;;6.63;;
2257;SDS011;1136;51.574;7.706;2023-06-10T15:29:14;8.50;;;7.10;;
2257;SDS011;1136;51.574;7.706;2023-06-10T15:31:41;9.07;;;7.20;;
2257;SDS011;1136;51.574;7.706;2023-06-10T15:34:08;7.73;;;7.23;;
2257;SDS011;1136;51.574;7.706;2023-06-10T15:36:35;12.80;;;7.37;;
2257;SDS011;1136;51.574;7.706;2023-06-10T15:39:04;7.67;;;7.17;;
2257;SDS011;1136;51.574;7.706;2023-06-10T15:41:33;6.90;;;6.40;;
2257;SDS011;1136;51.574;7.706;2023-06-10T15:44:00;7.40;;;6.93;;
2257;SDS011;1136;51.574;7.706;2023-06-10T15:46:28;7.73;;;7.20;;